Terminal Aerodrome Forecast
Issued by NWS

Home | Current Version | Previous Version | Graphics & Text | Print | Product List | Glossary On
Versions: 1 2 3 4 5 6 7 8 9 10 11 12 13 14 15 16 17 18 19 20 21 22 23 24 25 26 27 28 29 30 31 32 33 34 35 36
835
FTUS43 KGRB 251136
TAFRHI
TAF
KRHI 251136Z 2512/2612 27008KT P6SM SCT006 BKN015
      TEMPO 2512/2513 BKN006
     FM251500 29008G15KT P6SM -SHRA BKN020
     FM260200 30007KT P6SM VCSH BKN015
     FM260800 29006KT P6SM SCT005 BKN012=

USA.gov is the U.S. government's official web portal to all federal, state and local government web resources and services.